Time;durP1;ratioP1;P1;durP2;ratioP2;P2;SDS_P1;SDS_P2;PMS_P1;PMS_P2;Temp;Humidity;BMP_temperature;BMP_pressure;BME280_temperature;BME280_humidity;BME280_pressure;Samples;Min_cycle;Max_cycle;Signal;HPM_P1;HPM_P2
2022/08/26 00:00:29;;;;;;;36.30;29.87;;;20.40;99.90;;;;;;5028406;28;20563;-55
2022/08/26 00:02:55;;;;;;;34.57;29.60;;;20.40;99.90;;;;;;5021643;28;20471;-58
2022/08/26 00:05:21;;;;;;;33.83;28.87;;;20.40;99.90;;;;;;5020134;28;20445;-57
2022/08/26 00:07:48;;;;;;;34.53;30.83;;;20.30;99.90;;;;;;5026833;28;20608;-58
2022/08/26 00:10:14;;;;;;;36.50;30.70;;;20.30;99.90;;;;;;5027625;28;20844;-57
2022/08/26 00:12:39;;;;;;;33.70;30.20;;;20.20;99.90;;;;;;5025418;28;20445;-58
2022/08/26 00:15:07;;;;;;;37.67;29.97;;;20.20;99.90;;;;;;5024128;28;20236;-53
2022/08/26 00:17:33;;;;;;;35.57;30.00;;;20.20;99.90;;;;;;5015924;28;20264;-55
2022/08/26 00:19:59;;;;;;;34.33;30.70;;;20.10;99.90;;;;;;5026090;28;20437;-57
2022/08/26 00:22:25;;;;;;;38.70;29.70;;;20.10;99.90;;;;;;5028890;28;20438;-56
2022/08/26 00:24:51;;;;;;;35.40;29.00;;;20.10;99.90;;;;;;5031594;28;20266;-60
2022/08/26 00:27:16;;;;;;;40.70;31.53;;;20.00;99.90;;;;;;5018313;28;20449;-57
2022/08/26 00:29:42;;;;;;;34.93;31.17;;;20.00;99.90;;;;;;5030683;28;20687;-59
2022/08/26 00:32:07;;;;;;;39.00;31.10;;;20.10;99.90;;;;;;5033169;28;20201;-57
2022/08/26 00:34:33;;;;;;;34.50;29.87;;;20.00;99.90;;;;;;5029694;28;20182;-57
2022/08/26 00:36:59;;;;;;;40.67;31.40;;;20.00;99.90;;;;;;5027811;28;20665;-56
2022/08/26 00:39:24;;;;;;;34.23;30.70;;;20.00;99.90;;;;;;5031894;28;20232;-54
2022/08/26 00:41:50;;;;;;;34.53;29.17;;;20.00;99.90;;;;;;5024463;28;20179;-57
2022/08/26 00:44:17;;;;;;;36.50;29.93;;;19.90;99.90;;;;;;5033148;28;20187;-58
2022/08/26 00:46:45;;;;;;;32.37;28.97;;;19.90;99.90;;;;;;5022291;28;20271;-56
2022/08/26 00:49:23;;;;;;;34.80;29.57;;;19.90;99.90;;;;;;5031832;28;20788;-58
2022/08/26 00:51:52;;;;;;;37.73;30.67;;;19.90;99.90;;;;;;5030459;28;20465;-60
2022/08/26 00:54:22;;;;;;;32.27;28.67;;;19.90;99.90;;;;;;5022290;28;20547;-56
2022/08/26 00:56:59;;;;;;;34.33;30.37;;;19.90;99.90;;;;;;5031089;28;20559;-58
2022/08/26 00:59:27;;;;;;;31.70;28.37;;;19.90;99.90;;;;;;5029426;28;20469;-57
2022/08/26 01:01:55;;;;;;;35.37;29.10;;;19.80;99.90;;;;;;5031279;28;20556;-56
2022/08/26 01:04:22;;;;;;;33.47;29.33;;;19.80;99.90;;;;;;5033248;28;21232;-58
2022/08/26 01:06:50;;;;;;;32.73;29.50;;;19.90;99.90;;;;;;5030681;28;20450;-56
2022/08/26 01:09:17;;;;;;;32.83;29.27;;;19.90;99.90;;;;;;5030853;28;20460;-57
2022/08/26 01:11:44;;;;;;;36.77;30.83;;;19.80;99.90;;;;;;5029246;28;20943;-57
2022/08/26 01:14:12;;;;;;;33.17;29.63;;;19.80;99.90;;;;;;5031920;28;20491;-56
2022/08/26 01:16:38;;;;;;;39.57;31.37;;;19.70;99.90;;;;;;5017296;28;20467;-57
2022/08/26 01:19:18;;;;;;;36.30;30.27;;;19.70;99.90;;;;;;5023300;28;20833;-57
2022/08/26 01:21:51;;;;;;;35.17;29.53;;;19.70;99.90;;;;;;5014831;28;20193;-58
2022/08/26 01:24:17;;;;;;;38.23;29.97;;;19.70;99.90;;;;;;5024382;28;20434;-57
2022/08/26 01:26:44;;;;;;;34.03;30.20;;;19.70;99.90;;;;;;5019719;28;20520;-58
2022/08/26 01:29:16;;;;;;;34.47;30.87;;;19.70;99.90;;;;;;5031699;28;20489;-57
2022/08/26 01:31:46;;;;;;;37.53;29.90;;;19.60;99.90;;;;;;5014275;28;20872;-57
2022/08/26 01:34:25;;;;;;;41.00;31.83;;;19.60;99.90;;;;;;5016161;28;21347;-56
2022/08/26 01:36:57;;;;;;;35.10;30.40;;;19.60;99.90;;;;;;5023057;28;20502;-55
2022/08/26 01:39:23;;;;;;;34.77;31.10;;;19.60;99.90;;;;;;5014611;28;20500;-54
2022/08/26 01:41:53;;;;;;;35.40;31.10;;;19.60;99.90;;;;;;5026404;28;20437;-55
2022/08/26 01:44:22;;;;;;;35.17;31.50;;;19.60;99.90;;;;;;5046488;28;20424;-56
2022/08/26 01:46:50;;;;;;;38.70;32.17;;;19.60;99.90;;;;;;5039809;28;20491;-53
2022/08/26 01:49:18;;;;;;;34.80;30.10;;;19.60;99.90;;;;;;5014266;28;20939;-57
2022/08/26 01:51:45;;;;;;;37.93;31.40;;;19.60;99.90;;;;;;5026736;28;20500;-56
2022/08/26 01:54:11;;;;;;;39.13;31.60;;;19.50;99.90;;;;;;5029768;28;20496;-56
2022/08/26 01:56:38;;;;;;;34.10;30.27;;;19.50;99.90;;;;;;5035621;28;22150;-56
2022/08/26 01:59:09;;;;;;;40.93;32.40;;;19.50;99.90;;;;;;5033769;28;20444;-57
2022/08/26 02:01:36;;;;;;;37.30;30.57;;;19.50;99.90;;;;;;5034989;28;20433;-55
2022/08/26 02:04:14;;;;;;;36.30;32.10;;;19.50;99.90;;;;;;5031368;28;20425;-56
2022/08/26 02:06:40;;;;;;;37.80;31.77;;;19.50;99.90;;;;;;5030147;28;20437;-58
2022/08/26 02:09:06;;;;;;;36.97;32.53;;;19.50;99.90;;;;;;5032622;28;20425;-53
2022/08/26 02:11:33;;;;;;;35.07;31.47;;;19.50;99.90;;;;;;5025012;28;20437;-55
2022/08/26 02:14:10;;;;;;;39.37;31.83;;;19.50;99.90;;;;;;5028365;28;20445;-56
2022/08/26 02:16:40;;;;;;;35.87;31.57;;;19.50;99.90;;;;;;5025572;28;20451;-59
2022/08/26 02:19:12;;;;;;;35.47;30.50;;;19.50;99.90;;;;;;5019634;28;21258;-57
2022/08/26 02:21:39;;;;;;;39.97;31.53;;;19.50;99.90;;;;;;5025620;28;20439;-55
2022/08/26 02:24:15;;;;;;;40.03;32.23;;;19.40;99.90;;;;;;5022918;28;20427;-58
2022/08/26 02:26:42;;;;;;;37.67;31.47;;;19.40;99.90;;;;;;5021858;28;20440;-59
2022/08/26 02:29:36;;;;;;;36.17;32.30;;;19.40;99.90;;;;;;5024983;28;20502;-59
2022/08/26 02:32:02;;;;;;;37.60;31.83;;;19.40;99.90;;;;;;5027890;28;20579;-58
2022/08/26 02:34:33;;;;;;;35.83;32.00;;;19.30;99.90;;;;;;5029944;28;20991;-52
2022/08/26 02:37:02;;;;;;;37.73;32.73;;;19.30;99.90;;;;;;5021981;28;20286;-49
2022/08/26 02:39:28;;;;;;;40.87;33.00;;;19.30;99.90;;;;;;5030255;28;20573;-49
2022/08/26 02:41:54;;;;;;;39.97;34.30;;;19.30;99.90;;;;;;5029479;28;20824;-47
2022/08/26 02:44:20;;;;;;;37.50;33.37;;;19.30;99.90;;;;;;5029430;28;20445;-52
2022/08/26 02:46:46;;;;;;;35.60;31.80;;;19.30;99.90;;;;;;5028915;28;20442;-51
2022/08/26 02:49:12;;;;;;;39.13;33.60;;;19.30;99.90;;;;;;5016552;28;20199;-51
2022/08/26 02:51:38;;;;;;;38.97;33.17;;;19.30;99.90;;;;;;5025347;28;20483;-50
2022/08/26 02:54:03;;;;;;;37.90;33.80;;;19.30;99.90;;;;;;5028804;28;20194;-48
2022/08/26 02:56:31;;;;;;;37.60;33.60;;;19.30;99.90;;;;;;5026044;28;20187;-49
2022/08/26 02:58:56;;;;;;;40.23;33.10;;;19.20;99.90;;;;;;5024637;28;20641;-46
2022/08/26 03:01:25;;;;;;;41.60;34.83;;;19.20;99.90;;;;;;5016296;28;20442;-49
2022/08/26 03:03:51;;;;;;;36.53;32.67;;;19.10;99.90;;;;;;5028090;28;20191;-51
2022/08/26 03:06:16;;;;;;;39.63;33.83;;;19.10;99.90;;;;;;5029679;28;20437;-51
2022/08/26 03:08:42;;;;;;;43.90;34.00;;;19.20;99.90;;;;;;5027971;28;20221;-51
2022/08/26 03:11:08;;;;;;;40.30;33.93;;;19.20;99.90;;;;;;5025138;28;20855;-49
2022/08/26 03:13:35;;;;;;;38.20;33.27;;;19.10;99.90;;;;;;5026627;28;20450;-51
2022/08/26 03:16:01;;;;;;;40.00;34.37;;;19.10;99.90;;;;;;5026585;28;20566;-47
2022/08/26 03:18:28;;;;;;;36.57;32.87;;;19.00;99.90;;;;;;5027046;28;20490;-52
2022/08/26 03:20:53;;;;;;;42.33;33.70;;;19.00;99.90;;;;;;5027047;28;20467;-52
2022/08/26 03:23:19;;;;;;;37.80;31.60;;;19.10;99.90;;;;;;5030486;28;20416;-49
2022/08/26 03:25:52;;;;;;;35.80;32.07;;;19.10;99.90;;;;;;5033548;28;20213;-48
2022/08/26 03:28:18;;;;;;;40.00;32.90;;;19.00;99.90;;;;;;5035060;28;20194;-46
2022/08/26 03:30:44;;;;;;;36.67;31.70;;;19.00;99.90;;;;;;5032719;28;20437;-48
2022/08/26 03:33:12;;;;;;;36.23;32.50;;;19.00;99.90;;;;;;5042032;28;20431;-51
2022/08/26 03:35:41;;;;;;;37.67;31.93;;;19.00;99.90;;;;;;5029542;28;20441;-49
2022/08/26 03:38:08;;;;;;;35.17;31.47;;;19.00;99.90;;;;;;5036120;28;20477;-48
2022/08/26 03:40:35;;;;;;;36.80;31.83;;;18.90;99.90;;;;;;5037238;28;20434;-50
2022/08/26 03:43:03;;;;;;;35.93;32.10;;;19.00;99.90;;;;;;5028553;28;20546;-48
2022/08/26 03:45:29;;;;;;;36.33;32.47;;;19.00;99.90;;;;;;5023013;28;20445;-48
2022/08/26 03:47:55;;;;;;;35.43;31.50;;;19.00;99.90;;;;;;5015221;28;20504;-51
2022/08/26 03:50:22;;;;;;;35.73;31.90;;;19.00;99.90;;;;;;5006800;28;20438;-51
2022/08/26 03:52:48;;;;;;;33.60;30.10;;;19.00;99.90;;;;;;5003864;28;20475;-53
2022/08/26 03:55:14;;;;;;;36.77;31.03;;;18.90;99.90;;;;;;5010107;28;20465;-52
2022/08/26 03:57:40;;;;;;;35.30;31.50;;;18.90;99.90;;;;;;5002571;28;21003;-51
2022/08/26 04:00:10;;;;;;;38.73;32.10;;;18.90;99.90;;;;;;5002475;28;20443;-49
2022/08/26 04:02:36;;;;;;;37.73;33.63;;;18.90;99.90;;;;;;5016202;28;20192;-51
2022/08/26 04:05:01;;;;;;;34.77;31.17;;;18.90;99.90;;;;;;5015871;28;20500;-48
2022/08/26 04:07:27;;;;;;;37.10;33.10;;;18.90;99.90;;;;;;5010793;28;20187;-51
2022/08/26 04:09:56;;;;;;;38.00;32.73;;;19.00;99.90;;;;;;5007992;28;20234;-51
2022/08/26 04:12:24;;;;;;;42.40;34.97;;;19.00;99.90;;;;;;5008010;28;20190;-51
2022/08/26 04:14:51;;;;;;;39.23;32.90;;;19.00;99.90;;;;;;5012505;28;20470;-48
2022/08/26 04:17:17;;;;;;;37.83;33.60;;;19.00;99.90;;;;;;5037604;28;20471;-52
2022/08/26 04:19:43;;;;;;;37.53;33.63;;;19.00;99.90;;;;;;5028423;28;20852;-49
2022/08/26 04:22:09;;;;;;;46.27;34.23;;;18.90;99.90;;;;;;5032739;28;20504;-53
2022/08/26 04:24:35;;;;;;;35.70;31.97;;;19.00;99.90;;;;;;5033077;28;20190;-49
2022/08/26 04:27:02;;;;;;;37.93;32.23;;;19.00;99.90;;;;;;5029920;28;20578;-50
2022/08/26 04:29:28;;;;;;;35.97;32.27;;;19.00;99.90;;;;;;5033491;28;20661;-51
2022/08/26 04:31:55;;;;;;;35.17;31.03;;;19.00;99.90;;;;;;5032754;28;20436;-51
2022/08/26 04:34:25;;;;;;;34.20;30.50;;;19.00;99.90;;;;;;5031834;28;20434;-48
2022/08/26 04:36:51;;;;;;;35.50;30.97;;;19.00;99.90;;;;;;5031397;28;20550;-47
2022/08/26 04:39:19;;;;;;;34.80;31.13;;;19.00;99.90;;;;;;5032226;28;20893;-51
2022/08/26 04:41:46;;;;;;;37.53;32.03;;;19.00;99.90;;;;;;5031257;28;20186;-49
2022/08/26 04:44:12;;;;;;;35.67;31.97;;;19.00;99.90;;;;;;5032139;28;20420;-53
2022/08/26 04:46:38;;;;;;;36.27;32.37;;;19.00;99.90;;;;;;5029794;28;20437;-51
2022/08/26 04:49:07;;;;;;;37.97;33.27;;;19.00;99.90;;;;;;5031503;28;20419;-53
2022/08/26 04:51:33;;;;;;;37.23;33.03;;;18.90;99.90;;;;;;5032982;28;20197;-51
2022/08/26 04:53:59;;;;;;;37.57;32.10;;;19.00;99.90;;;;;;5032137;28;20440;-50
2022/08/26 04:56:27;;;;;;;40.73;34.37;;;19.00;99.90;;;;;;5032740;28;20829;-48
2022/08/26 04:58:53;;;;;;;38.80;32.40;;;19.00;99.90;;;;;;5030912;28;20194;-52
2022/08/26 05:01:19;;;;;;;40.83;33.57;;;19.00;99.90;;;;;;5027162;28;20441;-52
2022/08/26 05:03:45;;;;;;;40.07;34.13;;;19.00;99.90;;;;;;5031887;28;20186;-52
2022/08/26 05:06:11;;;;;;;40.27;34.77;;;19.00;99.90;;;;;;5030969;28;21247;-46
2022/08/26 05:08:37;;;;;;;36.27;32.60;;;19.00;99.90;;;;;;5032523;28;20498;-47
2022/08/26 05:11:04;;;;;;;34.67;31.00;;;19.00;99.90;;;;;;5031074;28;20175;-49
2022/08/26 05:13:30;;;;;;;38.97;31.80;;;19.00;99.90;;;;;;5030970;28;20869;-47
2022/08/26 05:15:56;;;;;;;34.97;31.47;;;19.10;99.90;;;;;;5030324;28;20394;-51
2022/08/26 05:18:23;;;;;;;34.27;30.67;;;19.10;99.90;;;;;;5030792;28;20210;-51
2022/08/26 05:20:51;;;;;;;35.17;31.47;;;19.00;99.90;;;;;;5030956;28;20176;-49
2022/08/26 05:23:17;;;;;;;35.60;31.80;;;19.00;99.90;;;;;;5030693;28;20410;-48
2022/08/26 05:25:46;;;;;;;35.13;31.67;;;19.10;99.90;;;;;;5034501;28;20433;-45
2022/08/26 05:28:14;;;;;;;35.27;30.67;;;19.10;99.90;;;;;;5024961;28;20449;-47
2022/08/26 05:30:40;;;;;;;34.37;29.50;;;19.10;99.90;;;;;;5024314;28;20765;-46
2022/08/26 05:33:07;;;;;;;34.63;30.93;;;19.20;99.90;;;;;;5029682;28;20922;-52
2022/08/26 05:35:34;;;;;;;32.63;29.10;;;19.30;99.90;;;;;;5030219;28;20414;-51
2022/08/26 05:38:05;;;;;;;33.17;29.60;;;19.30;99.90;;;;;;5030204;28;20500;-48
2022/08/26 05:40:37;;;;;;;30.77;27.73;;;19.40;99.90;;;;;;5031044;28;20448;-48
2022/08/26 05:43:09;;;;;;;33.40;30.03;;;19.40;99.90;;;;;;5030870;28;20425;-48
2022/08/26 05:45:38;;;;;;;30.53;27.53;;;19.50;99.90;;;;;;5023922;28;20403;-47
2022/08/26 05:48:07;;;;;;;32.43;28.23;;;19.60;99.90;;;;;;5024825;28;20425;-49
2022/08/26 05:50:44;;;;;;;31.70;28.47;;;19.60;99.90;;;;;;5020056;28;20418;-50
2022/08/26 05:53:12;;;;;;;28.73;25.93;;;19.70;99.90;;;;;;5030663;28;20540;-48
2022/08/26 05:55:43;;;;;;;31.27;28.10;;;19.70;99.90;;;;;;5022057;28;20427;-48
2022/08/26 05:58:09;;;;;;;29.37;26.47;;;19.80;99.90;;;;;;4993320;28;1080759;-50
2022/08/26 06:00:35;;;;;;;27.43;24.73;;;19.90;99.90;;;;;;5029547;28;20645;-49
2022/08/26 06:03:00;;;;;;;28.17;25.10;;;20.10;99.90;;;;;;5031108;28;20483;-49
2022/08/26 11:26:35;;;;;;;9.00;8.20;;;29.30;1.00;;;;;;4992530;28;20445;-51
2022/08/26 11:29:01;;;;;;;9.93;8.93;;;29.30;10.60;;;;;;5029367;28;20424;-47
2022/08/26 11:31:29;;;;;;;12.53;10.10;;;29.20;1.00;;;;;;5029586;28;20414;-51
2022/08/26 11:34:03;;;;;;;10.80;8.77;;;29.20;43.00;;;;;;5029185;28;20649;-47
2022/08/26 11:36:39;;;;;;;11.40;9.37;;;29.40;1.00;;;;;;5029584;28;20497;-53
2022/08/26 11:39:27;;;;;;;9.33;8.63;;;29.60;99.90;;;;;;5027581;28;20458;-46
2022/08/26 11:42:14;;;;;;;8.93;8.13;;;29.80;99.90;;;;;;5018697;28;20435;-48
2022/08/26 11:44:42;;;;;;;10.63;8.83;;;30.00;99.90;;;;;;5026994;28;21182;-52
2022/08/26 11:47:11;;;;;;;10.07;9.07;;;30.10;99.90;;;;;;5024750;28;20482;-49
2022/08/26 11:49:37;;;;;;;9.90;8.90;;;30.40;1.00;;;;;;5023880;28;20813;-49
2022/08/26 11:52:12;;;;;;;9.53;8.70;;;31.40;99.90;;;;;;5029187;28;20417;-47
2022/08/26 11:54:38;;;;;;;8.50;7.60;;;32.60;1.00;;;;;;5025254;28;20494;-47
2022/08/26 11:57:06;;;;;;;7.57;6.87;;;33.70;1.00;;;;;;5029118;28;21152;-50
2022/08/26 11:59:37;;;;;;;7.87;7.17;;;34.40;99.90;;;;;;5025642;28;20440;-49
2022/08/26 12:02:09;;;;;;;7.77;7.13;;;35.40;99.90;;;;;;5027610;28;20466;-49
2022/08/26 12:04:39;;;;;;;6.57;6.17;;;36.40;99.90;;;;;;5027141;28;20529;-50
2022/08/26 12:07:07;;;;;;;7.23;6.73;;;37.20;99.90;;;;;;5028267;28;20445;-52
2022/08/26 12:09:36;;;;;;;8.10;7.40;;;38.10;99.90;;;;;;5027929;28;20437;-47
2022/08/26 12:12:24;;;;;;;7.80;7.10;;;38.90;99.90;;;;;;5029176;28;20417;-50
2022/08/26 12:15:10;;;;;;;8.53;7.73;;;39.40;99.90;;;;;;5025627;28;20445;-51
2022/08/26 12:17:36;;;;;;;9.70;8.77;;;39.50;99.90;;;;;;5030023;28;20467;-53
2022/08/26 12:20:03;;;;;;;8.60;7.93;;;39.90;99.90;;;;;;5029348;28;20430;-52
2022/08/26 12:22:34;;;;;;;10.03;9.20;;;40.00;99.90;;;;;;5031883;28;20178;-48
2022/08/26 12:25:06;;;;;;;11.20;9.20;;;40.20;99.90;;;;;;5026296;28;20882;-48
2022/08/26 12:27:41;;;;;;;11.80;10.57;;;40.40;99.90;;;;;;5028608;28;20551;-48
2022/08/26 12:30:14;;;;;;;12.63;9.70;;;40.00;99.90;;;;;;5030174;28;20397;-48
2022/08/26 12:32:43;;;;;;;14.47;10.37;;;40.40;99.90;;;;;;5027277;28;20430;-53
2022/08/26 12:35:12;;;;;;;11.33;10.23;;;40.50;99.90;;;;;;5028508;28;20424;-50
2022/08/26 12:37:41;;;;;;;10.10;9.40;;;40.40;99.90;;;;;;5030244;28;20579;-53
2022/08/26 12:40:40;;;;;;;10.07;9.20;;;41.00;99.90;;;;;;5031130;28;20479;-50
2022/08/26 12:43:07;;;;;;;11.40;10.30;;;41.00;99.90;;;;;;5030767;28;20421;-49
2022/08/26 12:45:35;;;;;;;11.93;10.97;;;40.70;99.90;;;;;;5030631;28;20516;-50
2022/08/26 12:48:31;;;;;;;12.53;10.13;;;40.80;99.90;;;;;;5029893;28;20437;-49
2022/08/26 12:50:57;;;;;;;11.30;9.80;;;40.80;99.90;;;;;;5028711;28;20823;-51
2022/08/26 12:53:26;;;;;;;11.20;10.30;;;40.80;99.90;;;;;;5030947;28;20891;-51
2022/08/26 12:55:54;;;;;;;11.80;10.60;;;41.10;99.90;;;;;;5029145;28;20935;-49
2022/08/26 12:58:25;;;;;;;11.30;9.70;;;41.40;99.90;;;;;;5028808;28;20466;-47
2022/08/26 13:00:55;;;;;;;12.77;10.67;;;40.80;99.90;;;;;;5029943;28;20919;-47
2022/08/26 13:03:27;;;;;;;10.93;9.83;;;41.10;99.90;;;;;;5032753;28;20492;-47
2022/08/26 13:05:52;;;;;;;11.60;10.20;;;40.80;99.90;;;;;;5040892;28;20484;-47
2022/08/26 13:08:26;;;;;;;11.43;9.83;;;40.90;99.90;;;;;;5027073;28;20930;-49
2022/08/26 13:11:31;;;;;;;11.87;10.87;;;40.20;99.90;;;;;;5031607;28;20189;-50
2022/08/26 13:13:58;;;;;;;12.53;11.43;;;40.00;99.90;;;;;;5030322;28;20888;-49
2022/08/26 13:16:25;;;;;;;12.17;11.10;;;39.60;99.90;;;;;;5028959;28;20433;-51
2022/08/26 13:18:58;;;;;;;11.10;10.17;;;40.00;99.90;;;;;;5030480;28;20479;-47
2022/08/26 13:21:33;;;;;;;11.97;10.97;;;39.90;99.90;;;;;;5031653;28;20417;-48
2022/08/26 13:24:08;;;;;;;12.27;11.07;;;40.20;99.90;;;;;;5030412;28;20531;-49
2022/08/26 13:26:34;;;;;;;11.47;10.47;;;40.80;99.90;;;;;;5016384;28;20432;-49
2022/08/26 13:29:00;;;;;;;12.80;11.60;;;40.70;99.90;;;;;;5029630;28;21103;-50
2022/08/26 13:31:28;;;;;;;15.60;12.10;;;39.10;99.90;;;;;;5031752;28;20440;-47
2022/08/26 13:33:54;;;;;;;13.10;11.90;;;38.00;99.90;;;;;;5039141;28;20629;-51
2022/08/26 13:36:20;;;;;;;13.20;11.70;;;37.30;99.90;;;;;;5034033;28;20429;-48
2022/08/26 13:38:46;;;;;;;13.50;12.13;;;37.10;99.90;;;;;;5041857;28;20534;-50
2022/08/26 13:41:12;;;;;;;13.13;12.13;;;36.50;99.90;;;;;;5037831;28;20194;-52
2022/08/26 13:43:37;;;;;;;13.33;12.13;;;35.80;99.90;;;;;;5039835;28;20183;-51
2022/08/26 13:46:03;;;;;;;13.53;12.33;;;34.40;99.90;;;;;;5037416;28;20178;-50
2022/08/26 13:48:30;;;;;;;12.70;11.70;;;33.30;99.90;;;;;;5032983;28;20202;-50
2022/08/26 13:50:56;;;;;;;12.27;11.20;;;32.60;99.90;;;;;;5036350;28;20433;-52
2022/08/26 13:53:22;;;;;;;12.63;11.43;;;32.20;99.90;;;;;;5038810;28;20410;-51
2022/08/26 13:55:48;;;;;;;12.40;11.20;;;31.70;99.90;;;;;;5031052;28;20205;-51
2022/08/26 13:58:13;;;;;;;12.43;11.30;;;31.30;99.90;;;;;;5035235;28;20461;-53
2022/08/26 14:00:40;;;;;;;12.37;11.30;;;31.10;99.90;;;;;;5050811;28;20440;-50
2022/08/26 14:03:05;;;;;;;12.90;11.90;;;30.90;99.90;;;;;;5037599;28;20210;-49
2022/08/26 14:05:32;;;;;;;12.00;11.00;;;30.80;99.90;;;;;;5025978;28;20465;-49
2022/08/26 14:07:57;;;;;;;13.33;11.93;;;30.50;99.90;;;;;;5022098;28;20180;-52
2022/08/26 14:10:23;;;;;;;14.33;11.53;;;30.20;99.90;;;;;;5024554;28;20461;-52
2022/08/26 14:12:50;;;;;;;12.33;11.10;;;30.30;99.90;;;;;;5036391;28;20540;-52
2022/08/26 14:15:17;;;;;;;12.93;11.70;;;30.30;99.90;;;;;;5040104;28;20450;-48
2022/08/26 14:17:45;;;;;;;17.27;11.97;;;30.30;99.90;;;;;;5031753;28;20900;-49
2022/08/26 14:20:14;;;;;;;13.10;11.87;;;30.30;99.90;;;;;;5029901;28;20434;-51
2022/08/26 14:22:42;;;;;;;12.77;11.43;;;30.10;99.90;;;;;;5034800;28;20437;-52
2022/08/26 14:25:10;;;;;;;12.17;10.93;;;29.90;1.00;;;;;;5024339;28;20438;-52
2022/08/26 14:27:36;;;;;;;14.23;11.63;;;29.70;1.00;;;;;;5019007;28;21196;-49
2022/08/26 14:30:01;;;;;;;12.53;10.80;;;29.70;1.00;;;;;;5023979;28;20449;-51
2022/08/26 14:32:28;;;;;;;15.00;11.07;;;30.00;1.00;;;;;;5035532;28;20195;-52
2022/08/26 14:34:54;;;;;;;11.47;10.30;;;30.70;1.00;;;;;;5036911;28;20183;-51
2022/08/26 14:37:20;;;;;;;16.00;11.20;;;31.70;99.90;;;;;;5025329;28;20500;-51
2022/08/26 14:39:46;;;;;;;14.30;10.17;;;32.60;99.90;;;;;;5023261;28;20417;-50
2022/08/26 14:42:16;;;;;;;11.80;10.67;;;33.50;99.90;;;;;;5027156;28;20445;-48
2022/08/26 14:44:44;;;;;;;13.73;11.00;;;34.20;99.90;;;;;;5028292;28;20328;-49
2022/08/26 14:47:10;;;;;;;16.17;9.80;;;34.90;99.90;;;;;;5023351;28;21103;-51
2022/08/26 14:49:36;;;;;;;11.13;10.33;;;35.40;99.90;;;;;;5021751;28;20461;-48
2022/08/26 14:52:01;;;;;;;11.40;10.27;;;35.80;99.90;;;;;;5023232;28;20184;-49
2022/08/26 14:54:28;;;;;;;13.43;9.47;;;36.20;99.90;;;;;;5026738;28;20313;-52
2022/08/26 14:57:03;;;;;;;11.60;10.60;;;36.80;99.90;;;;;;5031086;28;20220;-50
2022/08/26 14:59:33;;;;;;;10.97;9.63;;;37.20;99.90;;;;;;5026949;28;20445;-53
2022/08/26 15:01:59;;;;;;;11.40;10.20;;;37.20;99.90;;;;;;5035320;28;20556;-53
2022/08/26 15:04:25;;;;;;;11.50;10.43;;;37.00;99.90;;;;;;5033232;28;20438;-49
2022/08/26 15:06:54;;;;;;;11.80;10.63;;;37.00;99.90;;;;;;5031878;28;20506;-49
2022/08/26 15:09:21;;;;;;;11.70;9.63;;;36.90;99.90;;;;;;5025536;28;20248;-47
2022/08/26 15:11:47;;;;;;;11.57;10.40;;;37.10;99.90;;;;;;5023624;28;20487;-50
2022/08/26 15:14:13;;;;;;;10.60;9.60;;;37.20;99.90;;;;;;5035144;28;20935;-51
2022/08/26 15:16:38;;;;;;;10.50;9.33;;;37.40;99.90;;;;;;5030673;28;20200;-49
2022/08/26 15:19:04;;;;;;;10.87;10.00;;;37.40;99.90;;;;;;5043614;28;20215;-49
2022/08/26 15:21:32;;;;;;;11.90;10.60;;;37.40;99.90;;;;;;5037945;28;20217;-48
2022/08/26 15:23:58;;;;;;;11.67;10.57;;;37.30;99.90;;;;;;5033026;28;20294;-51
2022/08/26 15:26:25;;;;;;;10.80;9.73;;;37.40;99.90;;;;;;5025314;28;20563;-49
2022/08/26 15:28:51;;;;;;;11.10;10.00;;;37.80;99.90;;;;;;5029696;28;20502;-51
2022/08/26 15:31:17;;;;;;;11.50;10.43;;;37.80;99.90;;;;;;5028354;28;20496;-46
2022/08/26 15:33:43;;;;;;;13.23;11.20;;;37.50;99.90;;;;;;5032627;28;20682;-52
2022/08/26 15:36:09;;;;;;;12.93;10.70;;;37.20;99.90;;;;;;5034158;28;20222;-52
2022/08/26 15:38:39;;;;;;;12.40;10.67;;;36.80;99.90;;;;;;5026734;28;21060;-49
2022/08/26 15:41:07;;;;;;;11.97;10.97;;;36.10;99.90;;;;;;5029443;28;20569;-53
2022/08/26 15:43:33;;;;;;;15.23;11.07;;;35.50;99.90;;;;;;5030414;28;20439;-51
2022/08/26 15:45:59;;;;;;;13.63;12.40;;;35.20;99.90;;;;;;5024396;28;20542;-48
2022/08/26 15:48:25;;;;;;;22.77;21.13;;;34.90;99.90;;;;;;5027983;28;21280;-51
2022/08/26 15:50:52;;;;;;;15.23;13.73;;;34.80;99.90;;;;;;5025168;28;20192;-52
2022/08/26 15:53:19;;;;;;;14.60;13.43;;;35.20;99.90;;;;;;5026281;28;20553;-51
2022/08/26 15:55:44;;;;;;;21.57;19.87;;;35.00;99.90;;;;;;5031126;28;20506;-50
2022/08/26 15:58:10;;;;;;;12.87;11.60;;;34.80;99.90;;;;;;5031611;28;20965;-50
2022/08/26 16:00:36;;;;;;;12.20;11.00;;;34.60;99.90;;;;;;5027063;28;20256;-53
2022/08/26 16:03:02;;;;;;;11.10;10.00;;;34.30;99.90;;;;;;5028611;28;20183;-49
2022/08/26 16:05:28;;;;;;;12.10;11.10;;;33.70;99.90;;;;;;5027844;28;20442;-49
2022/08/26 16:07:54;;;;;;;11.70;10.60;;;32.90;99.90;;;;;;5035572;28;20545;-46
2022/08/26 16:10:19;;;;;;;11.10;10.10;;;32.20;99.90;;;;;;5022013;28;20268;-47
2022/08/26 16:12:45;;;;;;;10.90;10.10;;;31.70;99.90;;;;;;5025958;28;20533;-48
2022/08/26 16:15:12;;;;;;;61.33;56.83;;;31.10;99.90;;;;;;5029590;28;20281;-52
2022/08/26 16:17:39;;;;;;;72.53;67.33;;;30.50;99.90;;;;;;5029521;28;20573;-54
2022/08/26 16:20:05;;;;;;;48.50;45.33;;;30.10;99.90;;;;;;5021000;28;20491;-49
2022/08/26 16:22:31;;;;;;;92.80;86.10;;;29.80;1.00;;;;;;5020331;28;20428;-47
2022/08/26 16:24:57;;;;;;;191.27;175.07;;;29.50;1.00;;;;;;5024535;28;21263;-48
2022/08/26 16:27:23;;;;;;;37.60;34.40;;;29.30;1.00;;;;;;5021376;28;20712;-51
2022/08/26 16:29:49;;;;;;;53.73;49.40;;;29.00;1.00;;;;;;5026323;28;20194;-47
2022/08/26 16:32:14;;;;;;;15.23;13.93;;;28.70;99.90;;;;;;5024710;28;20841;-49
2022/08/26 16:34:42;;;;;;;12.73;11.40;;;28.40;99.90;;;;;;5027571;28;20187;-50
2022/08/26 16:37:08;;;;;;;12.37;11.20;;;28.30;1.00;;;;;;5013396;28;20184;-51
2022/08/26 16:39:33;;;;;;;13.33;9.97;;;28.10;99.90;;;;;;5021046;28;20430;-48
2022/08/26 16:41:59;;;;;;;11.80;10.70;;;27.90;99.90;;;;;;5029617;28;20185;-50
2022/08/26 16:44:24;;;;;;;11.70;10.57;;;27.90;99.90;;;;;;5026144;28;20183;-49
2022/08/26 16:46:50;;;;;;;12.53;11.23;;;27.70;99.90;;;;;;5020914;28;20187;-48
2022/08/26 16:49:16;;;;;;;14.10;13.00;;;27.70;99.90;;;;;;5030968;28;20200;-52
2022/08/26 16:51:41;;;;;;;15.90;14.50;;;27.60;99.90;;;;;;5022070;28;20187;-51
2022/08/26 16:54:07;;;;;;;14.80;13.17;;;27.50;1.00;;;;;;5023035;28;20260;-54
2022/08/26 16:56:33;;;;;;;16.63;15.30;;;27.30;99.90;;;;;;5030717;28;20213;-52
2022/08/26 16:58:59;;;;;;;13.10;12.00;;;27.20;1.00;;;;;;5022976;28;20469;-48
2022/08/26 17:01:25;;;;;;;11.73;10.73;;;27.10;99.90;;;;;;5027068;28;20239;-50
2022/08/26 17:03:51;;;;;;;11.43;10.43;;;27.00;1.00;;;;;;5021509;28;20461;-52
2022/08/26 17:06:17;;;;;;;11.40;10.30;;;27.00;1.00;;;;;;5027452;28;20178;-50
2022/08/26 17:08:43;;;;;;;11.07;9.97;;;26.90;99.90;;;;;;5026173;28;20502;-50
2022/08/26 17:11:09;;;;;;;11.80;10.60;;;26.80;1.00;;;;;;5024020;28;20186;-51
2022/08/26 17:13:35;;;;;;;11.60;10.50;;;26.80;1.00;;;;;;5023634;28;20608;-50
2022/08/26 17:16:03;;;;;;;12.03;9.10;;;26.60;99.90;;;;;;5028263;28;20441;-49
2022/08/26 17:18:30;;;;;;;10.80;9.70;;;26.60;99.90;;;;;;5027787;28;20547;-52
2022/08/26 17:21:04;;;;;;;11.13;10.13;;;26.40;99.90;;;;;;5026813;28;20429;-48
2022/08/26 17:23:29;;;;;;;11.07;9.50;;;26.50;99.90;;;;;;5030042;28;20488;-49
2022/08/26 17:25:55;;;;;;;9.97;9.07;;;26.50;99.90;;;;;;5030623;28;20435;-49
2022/08/26 17:28:21;;;;;;;11.73;10.60;;;26.40;25.60;;;;;;5022239;28;20737;-51
2022/08/26 17:30:46;;;;;;;12.03;10.70;;;26.30;1.00;;;;;;5026991;28;20196;-51
2022/08/26 17:33:12;;;;;;;10.03;8.90;;;26.10;1.00;;;;;;5024920;28;20187;-47
2022/08/26 17:35:37;;;;;;;12.50;10.50;;;26.00;99.90;;;;;;5027860;28;20190;-48
2022/08/26 17:38:03;;;;;;;11.57;10.40;;;26.00;1.00;;;;;;5026578;28;20275;-47
2022/08/26 17:40:30;;;;;;;11.90;10.90;;;25.90;1.00;;;;;;5021321;28;20198;-50
2022/08/26 17:42:57;;;;;;;12.73;11.27;;;25.90;37.80;;;;;;5014739;28;20197;-51
2022/08/26 17:45:24;;;;;;;11.03;10.13;;;25.80;1.00;;;;;;5023363;28;20942;-53
2022/08/26 17:47:50;;;;;;;12.40;10.70;;;25.60;99.90;;;;;;5020452;28;20550;-53
2022/08/26 17:50:17;;;;;;;12.83;11.57;;;25.60;95.40;;;;;;5026239;28;20459;-54
2022/08/26 17:52:43;;;;;;;12.60;11.50;;;25.60;10.10;;;;;;5024528;28;20192;-52
2022/08/26 17:55:11;;;;;;;11.70;10.73;;;25.50;99.90;;;;;;5019334;28;20480;-52